Time;durP1;ratioP1;P1;durP2;ratioP2;P2;SDS_P1;SDS_P2;PMS_P1;PMS_P2;Temp;Humidity;BMP_temperature;BMP_pressure;BME280_temperature;BME280_humidity;BME280_pressure;Samples;Min_cycle;Max_cycle;Signal;HPM_P1;HPM_P2
2022/04/05 14:51:43;;;;;;;;;;;;;;;;;;1578121;27;88359;-48
2022/04/05 14:52:29;;;;;;;;;;;;;;;;;;1574754;27;87484;-47
2022/04/05 14:53:14;;;;;;;;;;;;;;;;;;1567582;27;86937;-52
2022/04/05 14:53:59;;;;;;;;;;;;;;;;;;1569440;27;87333;-47
2022/04/05 14:54:44;;;;;;;;;;;;;;;;;;1568896;27;92489;-51
2022/04/05 14:55:30;;;;;;;;;;;;;;;;;;1569842;27;89372;-49
2022/04/05 14:56:15;;;;;;;;;;;;;;;;;;1569985;27;87037;-48
2022/04/05 14:57:01;;;;;;;;;;;;;;;;;;1569920;27;87639;-49
2022/04/05 14:57:46;;;;;;;;;;;;;;;;;;1569651;27;88339;-47
2022/04/05 14:58:31;;;;;;;;;;;;;;;;;;1570056;27;94729;-48
2022/04/05 14:59:16;;;;;;;;;;;;;;;;;;1569666;27;87365;-46
2022/04/05 15:00:01;;;;;;;;;;;;;;;;;;1564859;27;92717;-48
2022/04/05 15:00:46;;;;;;;;;;;;;;;;;;1562718;27;96431;-51
2022/04/05 15:01:31;;;;;;;;;;;;;;;;;;1569573;27;91451;-48
2022/04/05 15:02:16;;;;;;;;;;;;;;;;;;1570038;27;91781;-50
2022/04/05 15:03:02;;;;;;;;;;;;;;;;;;1569726;27;90611;-47
2022/04/05 15:03:47;;;;;;;;;;;;;;;;;;1570520;27;83242;-47
2022/04/05 15:04:35;;;;;;;;;;;;;;;;;;1569782;27;90545;-48
2022/04/05 15:05:20;;;;;;;;;;;;;;;;;;1564961;27;88696;-49
2022/04/05 15:06:05;;;;;;;;;;;;;;;;;;1563681;27;94310;-47
2022/04/05 15:06:50;;;;;;;;;;;;;;;;;;1563647;27;94936;-47
2022/04/05 15:07:35;;;;;;;;;;;;;;;;;;1563451;27;99772;-47
2022/04/05 15:08:21;;;;;;;;;;;;;;;;;;1563648;27;94220;-48
2022/04/05 15:09:06;;;;;;;;;;;;;;;;;;1563771;27;92882;-51
2022/04/05 15:09:51;;;;;;;;;;;;;;;;;;1563620;27;93090;-48
2022/04/05 15:10:36;;;;;;;;;;;;;;;;;;1563524;27;101222;-51
2022/04/05 15:11:22;;;;;;;;;;;;;;;;;;1563601;27;96449;-51
2022/04/05 15:12:07;;;;;;;;;;;;;;;;;;1563378;27;100621;-47
2022/04/05 15:12:52;;;;;;;;;;;;;;;;;;1566544;27;95106;-46
2022/04/05 15:13:37;;;;;;;;;;;;;;;;;;1563995;27;83756;-50
2022/04/05 15:14:23;;;;;;;;;;;;;;;;;;1563330;27;97160;-48
2022/04/05 15:15:08;;;;;;;;;;;;;;;;;;1569074;27;98507;-47
2022/04/05 15:15:53;;;;;;;;;;;;;;;;;;1569583;27;90951;-47
2022/04/05 15:16:38;;;;;;;;;;;;;;;;;;1570135;27;90678;-49
2022/04/05 15:17:23;;;;;;;;;;;;;;;;;;1569710;27;91707;-48
2022/04/05 15:18:08;;;;;;;;;;;;;;;;;;1569835;27;90735;-48
2022/04/05 15:18:54;;;;;;;;;;;;;;;;;;1569751;27;91202;-49
2022/04/05 15:19:39;;;;;;;;;;;;;;;;;;1567291;27;93079;-48
2022/04/05 15:20:24;;;;;;;;;;;;;;;;;;1569841;27;93435;-49
2022/04/05 15:21:09;;;;;;;;;;;;;;;;;;1568990;27;93915;-47
2022/04/05 15:21:54;;;;;;;;;;;;;;;;;;1569201;27;96293;-51
2022/04/05 15:22:39;;;;;;;;;;;;;;;;;;1569466;27;92723;-48
2022/04/05 15:23:24;;;;;;;;;;;;;;;;;;1569945;27;91248;-47
2022/04/05 15:24:10;;;;;;;;;;;;;;;;;;1569284;27;92387;-47
2022/04/05 15:24:55;;;;;;;;;;;;;;;;;;1569783;27;98539;-47
2022/04/05 15:25:40;;;;;;;;;;;;;;;;;;1569696;27;92897;-48
2022/04/05 15:26:25;;;;;;;;;;;;;;;;;;1569629;27;94567;-47
2022/04/05 15:27:11;;;;;;;;;;;;;;;;;;1570023;27;86092;-49
2022/04/05 15:27:56;;;;;;;;;;;;;;;;;;1569238;27;96292;-48
2022/04/05 15:28:46;;;;;;;;;;;;;;;;;;1569921;27;99411;-48
2022/04/05 15:29:31;;;;;;;;;;;;;;;;;;1568123;27;83969;-47
2022/04/05 15:30:16;;;;;;;;;;;;;;;;;;1569501;27;93389;-47
2022/04/05 15:31:01;;;;;;;;;;;;;;;;;;1569584;27;96495;-52
2022/04/05 15:31:46;;;;;;;;;;;;;;;;;;1569747;27;91733;-50
2022/04/05 15:32:32;;;;;;;;;;;;;;;;;;1569567;27;98501;-46
2022/04/05 15:33:17;;;;;;;;;;;;;;;;;;1569735;27;93413;-50
2022/04/05 15:34:02;;;;;;;;;;;;;;;;;;1569660;27;92980;-49
2022/04/05 15:34:47;;;;;;;;;;;;;;;;;;1566985;27;95785;-47
2022/04/05 15:35:35;;;;;;;;;;;;;;;;;;1563895;27;91183;-47
2022/04/05 15:36:20;;;;;;;;;;;;;;;;;;1565504;27;86545;-47
2022/04/05 15:37:05;;;;;;;;;;;;;;;;;;1566029;27;95190;-47
2022/04/05 15:37:50;;;;;;;;;;;;;;;;;;1566043;27;102632;-46
2022/04/05 15:38:35;;;;;;;;;;;;;;;;;;1569388;27;95219;-49
2022/04/05 15:39:20;;;;;;;;;;;;;;;;;;1563099;27;102815;-48
2022/04/05 15:40:06;;;;;;;;;;;;;;;;;;1563256;27;96728;-52
2022/04/05 15:40:51;;;;;;;;;;;;;;;;;;1563669;27;96134;-48
2022/04/05 15:41:36;;;;;;;;;;;;;;;;;;1569056;27;88703;-49
2022/04/05 15:42:21;;;;;;;;;;;;;;;;;;1563308;27;98841;-49
2022/04/05 15:43:06;;;;;;;;;;;;;;;;;;1563261;27;101595;-48
2022/04/05 15:43:51;;;;;;;;;;;;;;;;;;1565129;27;96782;-47
2022/04/05 15:44:41;;;;;;;;;;;;;;;;;;1569639;27;93260;-49
2022/04/05 15:45:26;;;;;;;;;;;;;;;;;;1570060;27;83528;-49
2022/04/05 15:46:11;;;;;;;;;;;;;;;;;;1569567;27;98445;-47
2022/04/05 15:46:56;;;;;;;;;;;;;;;;;;1569315;27;95983;-50
2022/04/05 15:47:42;;;;;;;;;;;;;;;;;;1569836;27;102517;-46
2022/04/05 15:48:27;;;;;;;;;;;;;;;;;;1569336;27;97613;-52
2022/04/05 15:49:12;;;;;;;;;;;;;;;;;;1569471;27;99218;-47
2022/04/05 15:49:57;;;;;;;;;;;;;;;;;;1569509;27;98219;-53
2022/04/05 15:50:42;;;;;;;;;;;;;;;;;;1569245;27;99945;-49
2022/04/05 15:51:29;;;;;;;;;;;;;;;;;;1569346;27;95910;-49
2022/04/05 15:52:14;;;;;;;;;;;;;;;;;;1569279;27;106195;-46
2022/04/05 15:53:00;;;;;;;;;;;;;;;;;;1569712;27;96738;-47
2022/04/05 15:53:45;;;;;;;;;;;;;;;;;;1565705;27;85893;-45
2022/04/05 15:54:30;;;;;;;;;;;;;;;;;;1563534;27;98141;-46
2022/04/05 15:55:16;;;;;;;;;;;;;;;;;;1562926;27;96748;-46
2022/04/05 15:56:01;;;;;;;;;;;;;;;;;;1566320;27;88347;-48
2022/04/05 15:56:47;;;;;;;;;;;;;;;;;;1563432;27;101007;-45
2022/04/05 15:57:32;;;;;;;;;;;;;;;;;;1563310;27;98064;-45
2022/04/05 15:58:18;;;;;;;;;;;;;;;;;;1562920;27;98242;-48
2022/04/05 15:59:03;;;;;;;;;;;;;;;;;;1567601;27;99277;-50
2022/04/05 15:59:48;;;;;;;;;;;;;;;;;;1569649;27;97568;-51
2022/04/05 16:00:33;;;;;;;;;;;;;;;;;;1569053;27;100507;-49
2022/04/05 16:01:18;;;;;;;;;;;;;;;;;;1568878;27;103410;-50
2022/04/05 16:02:03;;;;;;;;;;;;;;;;;;1569117;27;95942;-51
2022/04/05 16:02:49;;;;;;;;;;;;;;;;;;1567112;27;102052;-50
2022/04/05 16:03:34;;;;;;;;;;;;;;;;;;1565477;27;101965;-49
2022/04/05 16:04:19;;;;;;;;;;;;;;;;;;1564988;27;105679;-48
2022/04/05 16:05:05;;;;;;;;;;;;;;;;;;1565059;27;96589;-47
2022/04/05 16:05:50;;;;;;;;;;;;;;;;;;1565360;27;87255;-51
2022/04/05 16:06:35;;;;;;;;;;;;;;;;;;1565202;27;106662;-44
2022/04/05 16:07:20;;;;;;;;;;;;;;;;;;1564978;27;99341;-49
2022/04/05 16:08:05;;;;;;;;;;;;;;;;;;1563642;27;98088;-50
2022/04/05 16:08:51;;;;;;;;;;;;;;;;;;1559799;27;100603;-50
2022/04/05 16:09:36;;;;;;;;;;;;;;;;;;1559377;28;84434;-46
2022/04/05 16:10:21;;;;;;;;;;;;;;;;;;1558490;28;99304;-48
2022/04/05 16:11:06;;;;;;;;;;;;;;;;;;1558589;28;102657;-51
2022/04/05 16:11:51;;;;;;;;;;;;;;;;;;1558682;28;105068;-51
2022/04/05 16:12:36;;;;;;;;;;;;;;;;;;1558818;28;99728;-49
2022/04/05 16:13:21;;;;;;;;;;;;;;;;;;1559787;27;101949;-48
2022/04/05 16:14:07;;;;;;;;;;;;;;;;;;1565113;27;101045;-50
2022/04/05 16:14:52;;;;;;;;;;;;;;;;;;1564799;27;100937;-44
2022/04/05 16:15:37;;;;;;;;;;;;;;;;;;1565483;27;90309;-47
2022/04/05 16:16:22;;;;;;;;;;;;;;;;;;1564926;27;97259;-51
2022/04/05 16:17:07;;;;;;;;;;;;;;;;;;1568256;27;85525;-47
2022/04/05 16:17:53;;;;;;;;;;;;;;;;;;1564744;27;95988;-45
2022/04/05 16:18:38;;;;;;;;;;;;;;;;;;1565464;27;95641;-44
2022/04/05 16:19:23;;;;;;;;;;;;;;;;;;1562103;27;99389;-50
2022/04/05 16:20:08;;;;;;;;;;;;;;;;;;1558369;27;94911;-50
2022/04/05 16:20:53;;;;;;;;;;;;;;;;;;1558901;27;101857;-48
2022/04/05 16:21:38;;;;;;;;;;;;;;;;;;1558616;28;100351;-48
2022/04/05 16:22:23;;;;;;;;;;;;;;;;;;1558644;27;95317;-47
2022/04/05 16:23:11;;;;;;;;;;;;;;;;;;1558722;27;99640;-52
2022/04/05 16:23:56;;;;;;;;;;;;;;;;;;1558759;28;102625;-50
2022/04/05 16:24:41;;;;;;;;;;;;;;;;;;1558784;28;95079;-49
2022/04/05 16:25:26;;;;;;;;;;;;;;;;;;1558627;28;96751;-49
2022/04/05 16:26:12;;;;;;;;;;;;;;;;;;1558671;28;97579;-49
2022/04/05 16:26:57;;;;;;;;;;;;;;;;;;1564524;27;83842;-46
2022/04/05 16:27:42;;;;;;;;;;;;;;;;;;1565156;27;99656;-45
2022/04/05 16:28:30;;;;;;;;;;;;;;;;;;1561528;27;104165;-45
2022/04/05 16:29:15;;;;;;;;;;;;;;;;;;1558406;27;107206;-50
2022/04/05 16:30:00;;;;;;;;;;;;;;;;;;1558632;27;96925;-47
2022/04/05 16:30:45;;;;;;;;;;;;;;;;;;1559056;27;99053;-48
2022/04/05 16:31:30;;;;;;;;;;;;;;;;;;1558708;27;94303;-49
2022/04/05 16:32:15;;;;;;;;;;;;;;;;;;1558520;27;93521;-48
2022/04/05 16:33:01;;;;;;;;;;;;;;;;;;1559380;27;97147;-47
2022/04/05 16:33:46;;;;;;;;;;;;;;;;;;1565241;27;96301;-48
2022/04/05 16:34:31;;;;;;;;;;;;;;;;;;1565019;27;91026;-47
2022/04/05 16:35:16;;;;;;;;;;;;;;;;;;1565064;27;95884;-47
2022/04/05 16:36:01;;;;;;;;;;;;;;;;;;1559308;27;99761;-49
2022/04/05 16:36:47;;;;;;;;;;;;;;;;;;1558990;27;94548;-49
2022/04/05 16:37:34;;;;;;;;;;;;;;;;;;1558523;27;97030;-51
2022/04/05 16:38:20;;;;;;;;;;;;;;;;;;1558690;27;99432;-46
2022/04/05 16:39:05;;;;;;;;;;;;;;;;;;1561257;28;101898;-48
2022/04/05 16:39:50;;;;;;;;;;;;;;;;;;1558889;27;98003;-50
2022/04/05 16:40:35;;;;;;;;;;;;;;;;;;1563155;27;96424;-48
2022/04/05 16:41:20;;;;;;;;;;;;;;;;;;1564801;27;95661;-48
2022/04/05 16:42:05;;;;;;;;;;;;;;;;;;1564755;27;101312;-50
2022/04/05 16:42:53;;;;;;;;;;;;;;;;;;1563920;27;98179;-51
2022/04/05 16:43:38;;;;;;;;;;;;;;;;;;1559472;27;85340;-51
2022/04/05 16:44:23;;;;;;;;;;;;;;;;;;1558624;27;97242;-53
2022/04/05 16:45:09;;;;;;;;;;;;;;;;;;1558789;28;95504;-52
2022/04/05 16:45:54;;;;;;;;;;;;;;;;;;1558781;28;96471;-54
2022/04/05 16:46:40;;;;;;;;;;;;;;;;;;1558483;28;102728;-51
2022/04/05 16:47:26;;;;;;;;;;;;;;;;;;1558718;28;95783;-53
2022/04/05 16:48:11;;;;;;;;;;;;;;;;;;1558517;28;96556;-51
2022/04/05 16:48:57;;;;;;;;;;;;;;;;;;1558367;28;97302;-51
2022/04/05 16:49:42;;;;;;;;;;;;;;;;;;1558964;28;92415;-52
2022/04/05 16:50:27;;;;;;;;;;;;;;;;;;1558655;28;97466;-53
2022/04/05 16:51:12;;;;;;;;;;;;;;;;;;1558256;28;99357;-50
2022/04/05 16:51:57;;;;;;;;;;;;;;;;;;1558250;28;94966;-50
2022/04/05 16:52:43;;;;;;;;;;;;;;;;;;1559467;27;96651;-53
2022/04/05 16:53:28;;;;;;;;;;;;;;;;;;1558847;27;85835;-54
2022/04/05 16:54:13;;;;;;;;;;;;;;;;;;1558937;28;88611;-52
2022/04/05 16:54:58;;;;;;;;;;;;;;;;;;1557724;28;103901;-51
2022/04/05 16:55:48;;;;;;;;;;;;;;;;;;1558103;28;100911;-49
2022/04/05 16:56:34;;;;;;;;;;;;;;;;;;1558497;28;93908;-53
2022/04/05 16:57:20;;;;;;;;;;;;;;;;;;1559284;28;84268;-53
2022/04/05 16:58:06;;;;;;;;;;;;;;;;;;1561480;27;96027;-50
2022/04/05 16:58:52;;;;;;;;;;;;;;;;;;1560416;27;97561;-51
2022/04/05 16:59:38;;;;;;;;;;;;;;;;;;1558602;28;100075;-50
2022/04/05 17:00:24;;;;;;;;;;;;;;;;;;1561604;28;89279;-48
2022/04/05 17:01:10;;;;;;;;;;;;;;;;;;1559268;28;83137;-47
2022/04/05 17:01:55;;;;;;;;;;;;;;;;;;1559259;28;84553;-51
2022/04/05 17:02:40;;;;;;;;;;;;;;;;;;1558521;28;101474;-49
2022/04/05 17:03:25;;;;;;;;;;;;;;;;;;1558148;28;103909;-51
2022/04/05 17:04:10;;;;;;;;;;;;;;;;;;1561702;27;97204;-51
2022/04/05 17:05:00;;;;;;;;;;;;;;;;;;1564565;27;100741;-50
2022/04/05 17:05:45;;;;;;;;;;;;;;;;;;1565228;27;93278;-48
2022/04/05 17:06:31;;;;;;;;;;;;;;;;;;1564697;27;98789;-51
2022/04/05 17:07:16;;;;;;;;;;;;;;;;;;1564763;27;97806;-52
2022/04/05 17:08:01;;;;;;;;;;;;;;;;;;1559582;27;95250;-50
2022/04/05 17:08:47;;;;;;;;;;;;;;;;;;1558611;28;103397;-51
2022/04/05 17:09:32;;;;;;;;;;;;;;;;;;1562828;27;91838;-48
2022/04/05 17:10:17;;;;;;;;;;;;;;;;;;1564506;27;102759;-48
2022/04/05 17:11:02;;;;;;;;;;;;;;;;;;1564569;27;101212;-52
2022/04/05 17:11:49;;;;;;;;;;;;;;;;;;1564709;27;98210;-52
2022/04/05 17:12:38;;;;;;;;;;;;;;;;;;1562947;27;99613;-48
2022/04/05 17:13:23;;;;;;;;;;;;;;;;;;1559151;28;83341;-46
2022/04/05 17:14:08;;;;;;;;;;;;;;;;;;1558172;28;104060;-45
2022/04/05 17:14:53;;;;;;;;;;;;;;;;;;1557854;28;95536;-47
2022/04/05 17:15:38;;;;;;;;;;;;;;;;;;1558668;28;103886;-46
2022/04/05 17:16:23;;;;;;;;;;;;;;;;;;1558375;28;99187;-46
2022/04/05 17:17:08;;;;;;;;;;;;;;;;;;1566806;27;101994;-46
2022/04/05 17:17:54;;;;;;;;;;;;;;;;;;1571081;27;95431;-48
2022/04/05 17:18:39;;;;;;;;;;;;;;;;;;1571142;27;96682;-48
2022/04/05 17:19:24;;;;;;;;;;;;;;;;;;1570831;27;104023;-49
2022/04/05 17:20:09;;;;;;;;;;;;;;;;;;1570951;27;95856;-50
2022/04/05 17:20:54;;;;;;;;;;;;;;;;;;1571536;27;87727;-51
2022/04/05 17:21:39;;;;;;;;;;;;;;;;;;1570917;27;104722;-46
2022/04/05 17:22:24;;;;;;;;;;;;;;;;;;1569374;27;101849;-50
2022/04/05 17:23:10;;;;;;;;;;;;;;;;;;1558285;28;96179;-44
2022/04/05 17:23:55;;;;;;;;;;;;;;;;;;1558740;28;98580;-49
2022/04/05 17:24:41;;;;;;;;;;;;;;;;;;1558707;27;95841;-49
2022/04/05 17:25:28;;;;;;;;;;;;;;;;;;1558848;28;83847;-49
2022/04/05 17:26:13;;;;;;;;;;;;;;;;;;1558839;28;88590;-45
2022/04/05 17:26:59;;;;;;;;;;;;;;;;;;1558370;28;102939;-48
2022/04/05 17:27:44;;;;;;;;;;;;;;;;;;1561276;27;88999;-46
2022/04/05 17:28:29;;;;;;;;;;;;;;;;;;1564761;27;94359;-46
2022/04/05 17:29:14;;;;;;;;;;;;;;;;;;1564605;27;97256;-46
2022/04/05 17:29:59;;;;;;;;;;;;;;;;;;1559034;27;100955;-44
2022/04/05 17:30:45;;;;;;;;;;;;;;;;;;1558614;28;93259;-44
2022/04/05 17:31:30;;;;;;;;;;;;;;;;;;1559066;28;84359;-45
2022/04/05 17:32:15;;;;;;;;;;;;;;;;;;1558194;28;90965;-48
2022/04/05 17:33:01;;;;;;;;;;;;;;;;;;1558393;27;96218;-50
2022/04/05 17:33:46;;;;;;;;;;;;;;;;;;1558665;28;87626;-46
2022/04/05 17:34:32;;;;;;;;;;;;;;;;;;1558222;28;104475;-49
2022/04/05 17:35:17;;;;;;;;;;;;;;;;;;1558564;27;96728;-52
2022/04/05 17:36:02;;;;;;;;;;;;;;;;;;1558428;28;93635;-46
2022/04/05 17:36:47;;;;;;;;;;;;;;;;;;1558464;28;96285;-48
2022/04/05 17:37:35;;;;;;;;;;;;;;;;;;1557988;27;98146;-51
2022/04/05 17:38:20;;;;;;;;;;;;;;;;;;1558701;28;90832;-50
2022/04/05 17:39:05;;;;;;;;;;;;;;;;;;1562541;27;93715;-44
2022/04/05 17:39:50;;;;;;;;;;;;;;;;;;1571196;27;95449;-47
2022/04/05 17:40:35;;;;;;;;;;;;;;;;;;1571070;27;95567;-49
2022/04/05 17:41:21;;;;;;;;;;;;;;;;;;1570394;27;100682;-49
2022/04/05 17:42:06;;;;;;;;;;;;;;;;;;1564481;27;103141;-48
2022/04/05 17:42:51;;;;;;;;;;;;;;;;;;1564694;27;96071;-45
2022/04/05 17:43:37;;;;;;;;;;;;;;;;;;1567701;27;90851;-49
2022/04/05 17:44:22;;;;;;;;;;;;;;;;;;1564389;27;101998;-51
2022/04/05 17:45:07;;;;;;;;;;;;;;;;;;1564630;27;99095;-46
2022/04/05 17:45:52;;;;;;;;;;;;;;;;;;1564882;27;95309;-44
2022/04/05 17:46:38;;;;;;;;;;;;;;;;;;1564549;27;98841;-51
2022/04/05 17:47:23;;;;;;;;;;;;;;;;;;1558824;27;93005;-49
2022/04/05 17:48:08;;;;;;;;;;;;;;;;;;1558359;28;101284;-44
2022/04/05 17:48:53;;;;;;;;;;;;;;;;;;1558464;28;101301;-51
2022/04/05 17:49:38;;;;;;;;;;;;;;;;;;1558092;27;98929;-45
2022/04/05 17:50:28;;;;;;;;;;;;;;;;;;1563312;27;92537;-51
2022/04/05 17:51:14;;;;;;;;;;;;;;;;;;1564838;27;93163;-47
2022/04/05 17:51:59;;;;;;;;;;;;;;;;;;1565136;27;83270;-48
2022/04/05 17:52:44;;;;;;;;;;;;;;;;;;1565066;27;93669;-50
2022/04/05 17:53:30;;;;;;;;;;;;;;;;;;1564496;27;94815;-48
2022/04/05 17:54:15;;;;;;;;;;;;;;;;;;1563225;27;92706;-47
2022/04/05 17:55:01;;;;;;;;;;;;;;;;;;1564567;27;95980;-49
2022/04/05 17:55:46;;;;;;;;;;;;;;;;;;1564802;27;93378;-44
2022/04/05 17:56:31;;;;;;;;;;;;;;;;;;1564459;27;95877;-43
2022/04/05 17:57:16;;;;;;;;;;;;;;;;;;1564543;27;94294;-50
2022/04/05 17:58:01;;;;;;;;;;;;;;;;;;1564784;27;95545;-46
2022/04/05 17:58:46;;;;;;;;;;;;;;;;;;1564688;27;101300;-47
2022/04/05 17:59:31;;;;;;;;;;;;;;;;;;1560556;27;99265;-46
2022/04/05 18:00:17;;;;;;;;;;;;;;;;;;1558617;27;93292;-51
2022/04/05 18:01:02;;;;;;;;;;;;;;;;;;1558456;28;98213;-49
2022/04/05 18:01:48;;;;;;;;;;;;;;;;;;1558235;27;90469;-49
2022/04/05 18:02:33;;;;;;;;;;;;;;;;;;1564508;27;99589;-46
2022/04/05 18:03:20;;;;;;;;;;;;;;;;;;1560668;27;94591;-43
2022/04/05 18:04:05;;;;;;;;;;;;;;;;;;1558071;28;95615;-46
2022/04/05 18:04:51;;;;;;;;;;;;;;;;;;1558668;27;89743;-42
2022/04/05 18:05:36;;;;;;;;;;;;;;;;;;1561297;28;97726;-57
2022/04/05 18:06:21;;;;;;;;;;;;;;;;;;1558404;27;96943;-58
2022/04/05 18:07:08;;;;;;;;;;;;;;;;;;1558792;27;89061;-57
2022/04/05 18:07:53;;;;;;;;;;;;;;;;;;1558728;27;83161;-58
2022/04/05 18:08:39;;;;;;;;;;;;;;;;;;1558360;27;94821;-57
2022/04/05 18:09:24;;;;;;;;;;;;;;;;;;1558388;27;96465;-51
2022/04/05 18:10:09;;;;;;;;;;;;;;;;;;1558134;27;97466;-52
2022/04/05 18:10:55;;;;;;;;;;;;;;;;;;1558382;27;99185;-54
2022/04/05 18:11:40;;;;;;;;;;;;;;;;;;1558212;27;94298;-52
2022/04/05 18:12:25;;;;;;;;;;;;;;;;;;1558510;28;95774;-53
2022/04/05 18:13:10;;;;;;;;;;;;;;;;;;1558226;28;101868;-48
2022/04/05 18:13:57;;;;;;;;;;;;;;;;;;1558462;28;105058;-55
2022/04/05 18:14:42;;;;;;;;;;;;;;;;;;1558436;28;100179;-54
2022/04/05 18:15:29;;;;;;;;;;;;;;;;;;1558260;28;97792;-48
2022/04/05 18:16:14;;;;;;;;;;;;;;;;;;1558131;28;96967;-52
2022/04/05 18:16:59;;;;;;;;;;;;;;;;;;1558534;28;101423;-51
2022/04/05 18:17:44;;;;;;;;;;;;;;;;;;1558336;28;105488;-50
2022/04/05 18:18:30;;;;;;;;;;;;;;;;;;1559322;27;98933;-53
2022/04/05 18:19:15;;;;;;;;;;;;;;;;;;1561770;27;95128;-51
2022/04/05 18:20:00;;;;;;;;;;;;;;;;;;1558473;27;96571;-50
2022/04/05 18:20:45;;;;;;;;;;;;;;;;;;1558331;28;94696;-51
2022/04/05 18:21:31;;;;;;;;;;;;;;;;;;1558019;27;100261;-52
2022/04/05 18:22:16;;;;;;;;;;;;;;;;;;1558242;27;94130;-52
2022/04/05 18:23:01;;;;;;;;;;;;;;;;;;1558349;27;100912;-51
2022/04/05 18:23:46;;;;;;;;;;;;;;;;;;1558521;27;98952;-49
2022/04/05 18:24:31;;;;;;;;;;;;;;;;;;1558059;27;99210;-54
2022/04/05 18:25:16;;;;;;;;;;;;;;;;;;1557939;27;105161;-50
2022/04/05 18:26:01;;;;;;;;;;;;;;;;;;1558171;27;97961;-51
2022/04/05 18:26:46;;;;;;;;;;;;;;;;;;1560770;27;96883;-52
2022/04/05 18:27:32;;;;;;;;;;;;;;;;;;1558074;28;93527;-56
2022/04/05 18:28:17;;;;;;;;;;;;;;;;;;1557933;28;101387;-57
2022/04/05 18:29:02;;;;;;;;;;;;;;;;;;1558259;28;92867;-53
2022/04/05 18:29:47;;;;;;;;;;;;;;;;;;1558071;28;101516;-54
2022/04/05 18:30:33;;;;;;;;;;;;;;;;;;1558082;27;106347;-48
2022/04/05 18:31:18;;;;;;;;;;;;;;;;;;1558147;28;93279;-51
2022/04/05 18:32:03;;;;;;;;;;;;;;;;;;1558133;28;95188;-51
2022/04/05 18:32:49;;;;;;;;;;;;;;;;;;1558305;28;92443;-48
2022/04/05 18:33:34;;;;;;;;;;;;;;;;;;1558324;28;95472;-48
2022/04/05 18:34:20;;;;;;;;;;;;;;;;;;1558011;28;95612;-53
2022/04/05 18:35:06;;;;;;;;;;;;;;;;;;1558316;27;95541;-50
2022/04/05 18:35:51;;;;;;;;;;;;;;;;;;1560921;27;90951;-49
2022/04/05 18:36:37;;;;;;;;;;;;;;;;;;1564031;27;94644;-58
2022/04/05 18:37:22;;;;;;;;;;;;;;;;;;1560094;27;96104;-59
2022/04/05 18:38:07;;;;;;;;;;;;;;;;;;1559392;27;95570;-60
2022/04/05 18:38:52;;;;;;;;;;;;;;;;;;1568799;27;93890;-57
2022/04/05 18:39:37;;;;;;;;;;;;;;;;;;1560675;27;93131;-49
2022/04/05 18:40:23;;;;;;;;;;;;;;;;;;1562864;27;94574;-57
2022/04/05 18:41:08;;;;;;;;;;;;;;;;;;1564299;27;83827;-59
2022/04/05 18:41:53;;;;;;;;;;;;;;;;;;1559096;27;96688;-53
2022/04/05 18:42:41;;;;;;;;;;;;;;;;;;1557993;28;100806;-53
2022/04/05 18:43:26;;;;;;;;;;;;;;;;;;1560858;27;84012;-55
2022/04/05 18:44:12;;;;;;;;;;;;;;;;;;1564573;27;97208;-55
2022/04/05 18:45:00;;;;;;;;;;;;;;;;;;1560318;27;94256;-57
2022/04/05 18:45:46;;;;;;;;;;;;;;;;;;1558092;27;83982;-52
2022/04/05 18:46:32;;;;;;;;;;;;;;;;;;1558260;28;94940;-53
2022/04/05 18:47:19;;;;;;;;;;;;;;;;;;1558750;27;85051;-56
2022/04/05 18:48:04;;;;;;;;;;;;;;;;;;1558126;28;94462;-57
2022/04/05 18:48:50;;;;;;;;;;;;;;;;;;1560970;28;95876;-55
2022/04/05 18:49:35;;;;;;;;;;;;;;;;;;1560219;27;93896;-57
2022/04/05 18:50:20;;;;;;;;;;;;;;;;;;1562015;27;96689;-52
2022/04/05 18:51:05;;;;;;;;;;;;;;;;;;1558150;27;83220;-56
2022/04/05 18:51:50;;;;;;;;;;;;;;;;;;1563930;27;101273;-57
2022/04/05 18:52:37;;;;;;;;;;;;;;;;;;1559434;27;95716;-51
2022/04/05 18:53:25;;;;;;;;;;;;;;;;;;1558300;28;86980;-56
2022/04/05 18:54:10;;;;;;;;;;;;;;;;;;1557776;27;97806;-57
2022/04/05 18:54:55;;;;;;;;;;;;;;;;;;1564321;27;98594;-56
2022/04/05 18:55:42;;;;;;;;;;;;;;;;;;1560590;27;101267;-54
2022/04/05 18:56:27;;;;;;;;;;;;;;;;;;1558436;28;87206;-57
2022/04/05 18:57:12;;;;;;;;;;;;;;;;;;1557590;27;94855;-54
2022/04/05 18:57:57;;;;;;;;;;;;;;;;;;1564278;27;96369;-57
2022/04/05 18:58:42;;;;;;;;;;;;;;;;;;1558905;27;97359;-58
2022/04/05 18:59:27;;;;;;;;;;;;;;;;;;1557751;27;95594;-55
2022/04/05 19:00:12;;;;;;;;;;;;;;;;;;1563381;27;93979;-56
2022/04/05 19:00:58;;;;;;;;;;;;;;;;;;1561465;27;96121;-56
2022/04/05 19:01:43;;;;;;;;;;;;;;;;;;1563576;27;97547;-55
2022/04/05 19:02:28;;;;;;;;;;;;;;;;;;1560348;27;102905;-56
2022/04/05 19:03:13;;;;;;;;;;;;;;;;;;1557226;27;99704;-55
2022/04/05 19:03:59;;;;;;;;;;;;;;;;;;1557177;28;103747;-55
2022/04/05 19:04:44;;;;;;;;;;;;;;;;;;1560060;27;94067;-52
2022/04/05 19:05:29;;;;;;;;;;;;;;;;;;1563461;27;100168;-55
2022/04/05 19:06:14;;;;;;;;;;;;;;;;;;1563935;27;98520;-55
2022/04/05 19:07:01;;;;;;;;;;;;;;;;;;1564429;27;93446;-54
2022/04/05 19:07:47;;;;;;;;;;;;;;;;;;1559107;27;85850;-54
2022/04/05 19:08:33;;;;;;;;;;;;;;;;;;1558124;28;92289;-56
2022/04/05 19:09:18;;;;;;;;;;;;;;;;;;1557925;28;93990;-53
2022/04/05 19:10:03;;;;;;;;;;;;;;;;;;1561034;27;95948;-53
2022/04/05 19:10:48;;;;;;;;;;;;;;;;;;1563285;27;97260;-54
2022/04/05 19:11:34;;;;;;;;;;;;;;;;;;1563063;27;100362;-55
2022/04/05 19:12:19;;;;;;;;;;;;;;;;;;1561309;27;99088;-54
2022/04/05 19:13:05;;;;;;;;;;;;;;;;;;1557876;28;101299;-54
2022/04/05 19:13:52;;;;;;;;;;;;;;;;;;1557175;27;94623;-52
2022/04/05 19:14:37;;;;;;;;;;;;;;;;;;1557403;27;83370;-51
2022/04/05 19:15:24;;;;;;;;;;;;;;;;;;1559140;27;105505;-53
2022/04/05 19:16:09;;;;;;;;;;;;;;;;;;1564137;27;97684;-52
2022/04/05 19:16:54;;;;;;;;;;;;;;;;;;1564206;27;97682;-55
2022/04/05 19:17:39;;;;;;;;;;;;;;;;;;1559954;27;96451;-55
2022/04/05 19:18:25;;;;;;;;;;;;;;;;;;1557467;28;102181;-51
2022/04/05 19:19:10;;;;;;;;;;;;;;;;;;1556650;27;99496;-54
2022/04/05 19:19:55;;;;;;;;;;;;;;;;;;1557295;27;94966;-55
2022/04/05 19:20:40;;;;;;;;;;;;;;;;;;1561967;27;98036;-54
2022/04/05 19:21:25;;;;;;;;;;;;;;;;;;1560580;27;98940;-52
2022/04/05 19:22:10;;;;;;;;;;;;;;;;;;1564245;27;102554;-54
2022/04/05 19:22:55;;;;;;;;;;;;;;;;;;1563897;27;105631;-56
2022/04/05 19:23:41;;;;;;;;;;;;;;;;;;1564297;27;95866;-48
2022/04/05 19:24:26;;;;;;;;;;;;;;;;;;1563958;27;102618;-57
2022/04/05 19:25:13;;;;;;;;;;;;;;;;;;1564076;27;105482;-56
2022/04/05 19:25:58;;;;;;;;;;;;;;;;;;1564148;27;96106;-56
2022/04/05 19:26:43;;;;;;;;;;;;;;;;;;1563293;27;99811;-56
2022/04/05 19:27:29;;;;;;;;;;;;;;;;;;1560923;27;98516;-56
2022/04/05 19:28:14;;;;;;;;;;;;;;;;;;1557477;28;96972;-55
2022/04/05 19:28:59;;;;;;;;;;;;;;;;;;1557234;27;97008;-56
2022/04/05 19:29:44;;;;;;;;;;;;;;;;;;1562310;27;96579;-57
2022/04/05 19:30:29;;;;;;;;;;;;;;;;;;1564080;27;96106;-56
2022/04/05 19:31:14;;;;;;;;;;;;;;;;;;1567124;27;83330;-56
2022/04/05 19:32:00;;;;;;;;;;;;;;;;;;1557928;28;90176;-59
2022/04/05 19:32:45;;;;;;;;;;;;;;;;;;1558015;28;91596;-51
2022/04/05 19:33:31;;;;;;;;;;;;;;;;;;1556994;27;93688;-56
2022/04/05 19:34:16;;;;;;;;;;;;;;;;;;1557949;27;83124;-55
2022/04/05 19:35:01;;;;;;;;;;;;;;;;;;1558236;27;95623;-52
2022/04/05 19:35:46;;;;;;;;;;;;;;;;;;1559109;27;101663;-54
2022/04/05 19:36:31;;;;;;;;;;;;;;;;;;1557588;28;93829;-50
2022/04/05 19:37:17;;;;;;;;;;;;;;;;;;1559768;27;95751;-53
2022/04/05 19:38:02;;;;;;;;;;;;;;;;;;1558590;27;93071;-50
2022/04/05 19:38:47;;;;;;;;;;;;;;;;;;1563353;27;86280;-48
2022/04/05 19:39:33;;;;;;;;;;;;;;;;;;1559445;27;97862;-51
2022/04/05 19:40:18;;;;;;;;;;;;;;;;;;1558942;27;93828;-51
2022/04/05 19:41:04;;;;;;;;;;;;;;;;;;1558969;28;100195;-54
2022/04/05 19:41:49;;;;;;;;;;;;;;;;;;1558657;28;99270;-51
2022/04/05 19:42:34;;;;;;;;;;;;;;;;;;1561145;27;101243;-50
2022/04/05 19:43:20;;;;;;;;;;;;;;;;;;1561197;27;93536;-53
2022/04/05 19:44:05;;;;;;;;;;;;;;;;;;1559668;27;102066;-52
2022/04/05 19:44:50;;;;;;;;;;;;;;;;;;1558388;28;99078;-50
2022/04/05 19:45:35;;;;;;;;;;;;;;;;;;1559055;28;87446;-50
2022/04/05 19:46:20;;;;;;;;;;;;;;;;;;1558669;27;94909;-55
2022/04/05 19:47:05;;;;;;;;;;;;;;;;;;1560000;27;98361;-55
2022/04/05 19:47:52;;;;;;;;;;;;;;;;;;1564299;27;94129;-53
2022/04/05 19:48:38;;;;;;;;;;;;;;;;;;1565246;27;94754;-54
2022/04/05 19:49:23;;;;;;;;;;;;;;;;;;1562446;27;86008;-52
2022/04/05 19:50:08;;;;;;;;;;;;;;;;;;1565594;27;87019;-52
2022/04/05 19:50:53;;;;;;;;;;;;;;;;;;1565118;27;99325;-54
2022/04/05 19:51:39;;;;;;;;;;;;;;;;;;1564906;27;94812;-51
2022/04/05 19:52:24;;;;;;;;;;;;;;;;;;1560218;27;93174;-55
2022/04/05 19:53:11;;;;;;;;;;;;;;;;;;1561800;28;96806;-52
2022/04/05 19:53:56;;;;;;;;;;;;;;;;;;1564191;27;98049;-51
2022/04/05 19:54:42;;;;;;;;;;;;;;;;;;1564661;27;98677;-53
2022/04/05 19:55:27;;;;;;;;;;;;;;;;;;1563874;27;106078;-55
2022/04/05 19:56:12;;;;;;;;;;;;;;;;;;1562731;27;96412;-53
2022/04/05 19:56:57;;;;;;;;;;;;;;;;;;1558620;27;104756;-54
2022/04/05 19:57:42;;;;;;;;;;;;;;;;;;1561855;27;95762;-55
2022/04/05 19:58:27;;;;;;;;;;;;;;;;;;1563589;27;93977;-50
2022/04/05 19:59:12;;;;;;;;;;;;;;;;;;1562306;27;95432;-56
2022/04/05 19:59:57;;;;;;;;;;;;;;;;;;1564855;27;103615;-51